Portada
METAR-TAF:

METAR-TAF

Aeroports :

Ottawa, Kansas, Estats Units d'Amèrica

latitud: 38-32-20N, longitud: 095-15-10W, altitud: 295 m

Observació

L'informe es va fer fa 15 minuts, a les 06:35 UTC
Vent 5 kt del Sud-Est
Temperatura 24°C
Humitat 94%
Pressió 1014 hPa
Visibilitat: 8.0 km
Cel clar
boirina

METAR: KOWI 060635Z AUTO 14005KT 5SM BR CLR 24/23 A2995 RMK AO2 PWINO

Hora: 01:50 (06:50 UTC)


TAF: manca

Observacions i pronòstics meteorològics de més de 4000 aeroports (METAR i TAF).

Les estacions disponibles són els punts grocs i vermells al mapa.

Posi el ratolí al punt desitjat per veure el nom de l'estació.

Feu clic per veure les observacions i els pronòstics meteorològics.

Per canviar el mapa: feu clic els botons verds amb una creu de color negre per apropar; al botó verd amb un guió per allunyar la imatge; o en les fletxes verdes per a mapes adjacents.


METAR-TAF: